createdAt,value
2022-08-26T00:01:44.303Z,16.70
2022-08-26T00:04:12.918Z,18.90
2022-08-26T00:06:42.692Z,19.30
2022-08-26T00:09:15.992Z,16.30
2022-08-26T00:11:44.382Z,21.40
2022-08-26T00:14:12.034Z,15.60
2022-08-26T00:16:41.075Z,19.80
2022-08-26T00:19:17.263Z,14.90
2022-08-26T00:21:44.399Z,14.80
2022-08-26T00:24:11.244Z,19.50
2022-08-26T00:26:39.439Z,15.30
2022-08-26T00:29:08.598Z,20.50
2022-08-26T00:31:36.734Z,17.70
2022-08-26T00:34:04.566Z,17.70
2022-08-26T00:36:32.085Z,14.60
2022-08-26T00:38:59.281Z,21.30
2022-08-26T00:41:26.524Z,27.70
2022-08-26T00:43:54.600Z,23.60
2022-08-26T00:46:27.013Z,21.10
2022-08-26T00:49:11.965Z,20.10
2022-08-26T00:51:53.739Z,20.00
2022-08-26T00:54:24.469Z,23.70
2022-08-26T00:57:01.049Z,18.20
2022-08-26T00:59:32.815Z,18.80
2022-08-26T01:02:02.774Z,17.70
2022-08-26T01:04:33.473Z,21.30
2022-08-26T01:07:01.331Z,22.70
2022-08-26T01:09:28.629Z,17.70
2022-08-26T01:11:59.799Z,20.10
2022-08-26T01:14:31.116Z,17.70
2022-08-26T01:16:59.013Z,27.00
2022-08-26T01:19:30.633Z,27.30
2022-08-26T01:22:02.591Z,16.90
2022-08-26T01:24:31.158Z,21.20
2022-08-26T01:27:03.604Z,18.10
2022-08-26T01:29:33.970Z,23.70
2022-08-26T01:32:05.129Z,15.20
2022-08-26T01:34:36.347Z,21.70
2022-08-26T01:37:11.694Z,22.20
2022-08-26T01:39:43.862Z,26.00
2022-08-26T01:42:14.978Z,25.20
2022-08-26T01:44:51.670Z,18.90
2022-08-26T01:47:21.670Z,19.00
2022-08-26T01:49:53.706Z,20.80
2022-08-26T01:52:27.642Z,20.00
2022-08-26T01:57:23.907Z,20.80
2022-08-26T01:59:53.271Z,19.20
2022-08-26T02:02:20.755Z,17.50
2022-08-26T02:04:53.536Z,26.90
2022-08-26T02:07:21.799Z,25.60
2022-08-26T02:09:49.583Z,25.30
2022-08-26T02:12:19.754Z,22.80
2022-08-26T02:14:59.870Z,22.00
2022-08-26T02:17:48.356Z,22.30
2022-08-26T02:20:20.978Z,22.10
2022-08-26T02:22:48.446Z,19.30
2022-08-26T02:25:25.274Z,19.00
2022-08-26T02:27:52.671Z,20.20
2022-08-26T02:30:24.330Z,20.70
2022-08-26T02:32:53.254Z,21.80
2022-08-26T02:35:23.198Z,18.50
2022-08-26T02:37:52.131Z,19.90
2022-08-26T02:40:28.173Z,20.50
2022-08-26T02:42:55.965Z,24.10
2022-08-26T02:45:26.424Z,17.20
2022-08-26T02:47:54.185Z,26.80
2022-08-26T02:50:25.743Z,21.00
2022-08-26T02:52:53.094Z,20.90
2022-08-26T02:55:20.520Z,21.50
2022-08-26T02:57:47.502Z,16.00
2022-08-26T03:00:15.569Z,26.30
2022-08-26T03:02:42.509Z,22.40
2022-08-26T03:05:11.445Z,17.30
2022-08-26T03:07:38.722Z,18.00
2022-08-26T03:10:08.780Z,24.30
2022-08-26T03:12:35.794Z,15.40
2022-08-26T03:15:03.357Z,17.50
2022-08-26T03:17:44.451Z,14.80
2022-08-26T03:20:11.568Z,15.40
2022-08-26T03:22:40.671Z,19.10
2022-08-26T03:25:09.934Z,15.30
2022-08-26T03:27:36.863Z,20.10
2022-08-26T03:30:20.997Z,21.00
2022-08-26T03:32:47.828Z,15.70
2022-08-26T03:35:15.327Z,12.90
2022-08-26T03:37:42.586Z,14.40
2022-08-26T03:40:11.667Z,14.90
2022-08-26T03:42:40.799Z,16.00
2022-08-26T03:45:13.252Z,17.30
2022-08-26T03:47:42.867Z,15.80
2022-08-26T03:50:13.149Z,16.80
2022-08-26T03:52:43.694Z,15.30
2022-08-26T03:55:12.074Z,21.20
2022-08-26T03:57:39.418Z,17.40
2022-08-26T04:00:09.192Z,19.90
2022-08-26T04:02:36.349Z,16.40
2022-08-26T04:05:03.323Z,14.90
2022-08-26T04:07:32.088Z,16.60
2022-08-26T04:10:00.181Z,14.40
2022-08-26T04:12:27.187Z,19.60
2022-08-26T04:14:54.061Z,25.10
2022-08-26T04:17:25.900Z,17.10
2022-08-26T04:19:54.168Z,18.80
2022-08-26T04:22:24.859Z,13.50
2022-08-26T04:24:52.455Z,13.20
2022-08-26T04:27:19.649Z,13.30
2022-08-26T04:29:47.739Z,12.70
2022-08-26T04:32:15.660Z,17.80
2022-08-26T04:34:43.906Z,14.30
2022-08-26T04:37:13.331Z,11.90
2022-08-26T04:39:40.537Z,15.40
2022-08-26T04:42:07.416Z,19.30
2022-08-26T04:44:36.399Z,15.50
2022-08-26T04:47:03.423Z,10.90
2022-08-26T04:49:35.257Z,17.00
2022-08-26T04:52:03.931Z,13.70
2022-08-26T04:54:31.773Z,12.80
2022-08-26T04:56:59.309Z,14.10
2022-08-26T04:59:26.315Z,15.30
2022-08-26T05:01:57.568Z,13.30
2022-08-26T05:04:24.817Z,12.40
2022-08-26T05:06:53.419Z,20.90
2022-08-26T05:09:22.728Z,18.60
2022-08-26T05:11:52.223Z,15.30
2022-08-26T05:14:20.962Z,14.10
2022-08-26T05:16:48.071Z,13.50
2022-08-26T05:19:19.274Z,12.80
2022-08-26T05:21:48.524Z,20.70
2022-08-26T05:24:17.859Z,13.20
2022-08-26T05:26:44.950Z,13.80
2022-08-26T05:29:12.470Z,17.50
2022-08-26T05:31:39.292Z,16.40
2022-08-26T05:34:06.988Z,18.40
2022-08-26T05:36:36.992Z,15.40
2022-08-26T05:39:10.447Z,15.80
2022-08-26T05:41:41.243Z,15.40
2022-08-26T05:44:11.047Z,17.60
2022-08-26T05:46:39.717Z,18.40
2022-08-26T05:49:12.534Z,10.90
2022-08-26T05:51:41.841Z,13.00
2022-08-26T05:54:10.384Z,10.60
2022-08-26T05:56:39.041Z,13.30
2022-08-26T05:59:10.899Z,16.40
2022-08-26T06:01:43.682Z,21.50
2022-08-26T06:04:12.070Z,13.80
2022-08-26T06:06:41.502Z,13.30
2022-08-26T06:09:11.233Z,21.20
2022-08-26T06:11:39.651Z,18.60
2022-08-26T06:14:08.566Z,25.00
2022-08-26T06:16:38.752Z,14.70
2022-08-26T06:19:10.732Z,17.30
2022-08-26T06:21:41.290Z,15.90
2022-08-26T06:24:28.325Z,15.30
2022-08-26T06:26:57.792Z,18.10
2022-08-26T06:29:26.427Z,18.10
2022-08-26T06:31:56.125Z,14.30
2022-08-26T06:34:40.677Z,16.60
2022-08-26T06:37:09.018Z,9.90
2022-08-26T06:39:35.866Z,16.00
2022-08-26T06:42:08.711Z,14.40
2022-08-26T06:44:37.999Z,12.30
2022-08-26T06:47:07.913Z,11.10
2022-08-26T06:49:35.128Z,10.10
2022-08-26T06:52:02.559Z,14.70
2022-08-26T06:54:31.805Z,12.30
2022-08-26T06:56:59.424Z,16.10
2022-08-26T06:59:26.252Z,9.90
2022-08-26T07:01:54.797Z,9.10
2022-08-26T07:04:24.584Z,8.00
2022-08-26T07:06:54.270Z,11.20
2022-08-26T07:09:23.997Z,11.80
2022-08-26T07:11:52.050Z,12.80
2022-08-26T07:14:21.498Z,8.90
2022-08-26T07:16:50.654Z,10.20
2022-08-26T07:19:30.368Z,14.50
2022-08-26T07:22:02.252Z,9.90
2022-08-26T07:24:31.238Z,7.90
2022-08-26T07:27:01.664Z,8.00
2022-08-26T07:29:30.890Z,10.50
2022-08-26T07:31:59.452Z,13.30
2022-08-26T07:34:27.334Z,9.60
2022-08-26T07:36:55.273Z,10.90
2022-08-26T07:39:23.014Z,6.50
2022-08-26T07:41:50.394Z,11.20
2022-08-26T07:44:18.036Z,9.10
2022-08-26T07:46:51.286Z,12.10
2022-08-26T07:49:20.926Z,12.90
2022-08-26T07:51:48.856Z,16.80
2022-08-26T07:54:16.787Z,10.30
2022-08-26T07:56:44.670Z,7.70
2022-08-26T07:59:14.068Z,8.50
2022-08-26T08:01:44.733Z,12.30
2022-08-26T08:04:15.421Z,11.20
2022-08-26T08:06:43.860Z,14.40
2022-08-26T08:09:13.329Z,10.30
2022-08-26T08:11:41.471Z,9.60
2022-08-26T08:14:11.747Z,12.40
2022-08-26T08:16:46.128Z,12.90
2022-08-26T08:19:15.700Z,11.60
2022-08-26T08:21:44.067Z,11.50
2022-08-26T08:24:11.605Z,9.80
2022-08-26T08:26:39.361Z,11.10
2022-08-26T08:29:08.498Z,13.80
2022-08-26T08:31:56.845Z,13.90
2022-08-26T08:34:24.515Z,14.30
2022-08-26T08:36:53.485Z,13.20
2022-08-26T08:39:20.754Z,13.70
2022-08-26T08:42:20.487Z,13.90
2022-08-26T08:44:54.007Z,11.10
2022-08-26T08:47:39.396Z,10.40
2022-08-26T08:50:12.364Z,9.20
2022-08-26T08:55:13.662Z,11.60
2022-08-26T09:00:18.182Z,9.10
2022-08-26T09:02:53.109Z,13.30
2022-08-26T09:05:42.597Z,11.10
2022-08-26T09:08:19.727Z,13.00
2022-08-26T09:10:53.961Z,7.00
2022-08-26T09:13:24.898Z,10.80
2022-08-26T09:16:13.968Z,7.70
2022-08-26T09:19:00.636Z,11.20
2022-08-26T09:21:29.957Z,10.60
2022-08-26T09:23:57.656Z,14.30
2022-08-26T09:26:39.952Z,11.00
2022-08-26T09:31:52.387Z,12.40
2022-08-26T09:34:23.202Z,7.50
2022-08-26T09:36:53.741Z,9.60
2022-08-26T09:39:25.976Z,11.60
2022-08-26T09:42:25.692Z,6.30
2022-08-26T09:44:54.459Z,10.40
2022-08-26T09:47:39.067Z,8.00
2022-08-26T09:50:28.888Z,8.10
2022-08-26T09:53:09.901Z,12.20
2022-08-26T09:55:42.613Z,10.00
2022-08-26T09:58:14.728Z,11.70
2022-08-26T10:00:52.915Z,9.60
2022-08-26T10:03:33.007Z,8.90
2022-08-26T10:06:04.481Z,9.70
2022-08-26T10:08:34.494Z,8.00
2022-08-26T10:11:05.613Z,8.80
2022-08-26T10:13:41.125Z,5.70
2022-08-26T10:16:22.374Z,8.00
2022-08-26T10:18:59.906Z,7.10
2022-08-26T10:21:35.559Z,5.50
2022-08-26T10:24:04.532Z,12.80
2022-08-26T10:26:43.286Z,11.10
2022-08-26T10:29:19.994Z,7.40
2022-08-26T10:32:10.480Z,10.10
2022-08-26T10:34:40.846Z,9.90
2022-08-26T10:37:21.612Z,9.30
2022-08-26T10:39:58.685Z,6.90
2022-08-26T10:42:40.644Z,8.00
2022-08-26T10:45:15.304Z,8.30
2022-08-26T10:47:46.304Z,6.70
2022-08-26T10:50:15.089Z,7.20
2022-08-26T10:53:08.751Z,11.10
2022-08-26T10:55:54.950Z,11.40
2022-08-26T10:58:45.650Z,5.30
2022-08-26T11:01:50.847Z,8.50
2022-08-26T11:04:47.086Z,10.20
2022-08-26T11:07:33.257Z,10.10
2022-08-26T11:10:17.390Z,11.00
2022-08-26T11:12:49.291Z,8.70
2022-08-26T11:15:32.151Z,10.70
2022-08-26T11:18:04.408Z,8.40
2022-08-26T11:20:47.339Z,8.60
2022-08-26T11:23:23.224Z,6.90
2022-08-26T11:25:59.831Z,5.70
2022-08-26T11:28:44.031Z,10.40
2022-08-26T11:31:31.763Z,9.60
2022-08-26T11:34:07.235Z,8.40
2022-08-26T11:36:47.792Z,9.90
2022-08-26T11:39:18.492Z,10.00
2022-08-26T11:41:49.512Z,7.60
2022-08-26T11:44:24.845Z,8.90
2022-08-26T11:46:57.073Z,12.90
2022-08-26T11:49:25.023Z,5.20
2022-08-26T11:51:52.098Z,5.60
2022-08-26T11:54:35.353Z,10.50
2022-08-26T11:57:09.417Z,12.10
2022-08-26T11:59:41.396Z,7.00
2022-08-26T12:02:17.750Z,7.40
2022-08-26T12:04:49.902Z,9.70
2022-08-26T12:07:24.162Z,8.30
2022-08-26T12:09:56.552Z,8.50
2022-08-26T12:12:26.901Z,6.40
2022-08-26T12:15:10.724Z,7.40
2022-08-26T12:17:39.505Z,6.40
2022-08-26T12:20:19.244Z,12.10
2022-08-26T12:22:48.273Z,8.20
2022-08-26T12:25:23.980Z,9.90
2022-08-26T12:27:54.040Z,7.70
2022-08-26T12:30:26.205Z,9.50
2022-08-26T12:33:15.756Z,5.60
2022-08-26T12:35:54.304Z,12.20
2022-08-26T12:38:22.792Z,11.50
2022-08-26T12:40:50.425Z,7.00
2022-08-26T12:43:39.469Z,15.00
2022-08-26T12:46:09.140Z,8.50
2022-08-26T12:48:40.975Z,8.10
2022-08-26T12:51:16.488Z,9.20
2022-08-26T12:53:44.772Z,6.50
2022-08-26T12:56:38.871Z,8.10
2022-08-26T12:59:22.844Z,10.00
2022-08-26T13:01:50.358Z,11.60
2022-08-26T13:04:41.328Z,9.00
2022-08-26T13:07:25.087Z,9.20
2022-08-26T13:09:54.995Z,9.40
2022-08-26T13:12:24.654Z,9.10
2022-08-26T13:14:51.617Z,7.50
2022-08-26T13:17:18.468Z,12.00
2022-08-26T13:19:45.330Z,10.60
2022-08-26T13:22:13.864Z,9.00
2022-08-26T13:24:43.711Z,13.20
2022-08-26T13:27:13.213Z,8.10
2022-08-26T13:29:41.549Z,9.30
2022-08-26T13:32:09.306Z,15.50
2022-08-26T13:34:37.636Z,10.40
2022-08-26T13:37:05.315Z,8.20
2022-08-26T13:39:33.249Z,9.50
2022-08-26T13:42:00.313Z,10.00
2022-08-26T13:44:27.723Z,7.00
2022-08-26T13:46:54.853Z,6.10
2022-08-26T13:49:22.796Z,10.30
2022-08-26T13:51:49.896Z,5.30
2022-08-26T13:54:16.775Z,11.80
2022-08-26T13:56:43.759Z,8.90
2022-08-26T13:59:10.908Z,5.50
2022-08-26T14:01:40.264Z,9.80
2022-08-26T14:04:08.554Z,8.90
2022-08-26T14:06:35.893Z,7.80
2022-08-26T14:09:03.066Z,8.50
2022-08-26T14:11:30.334Z,10.40
2022-08-26T14:14:13.711Z,5.50
2022-08-26T14:16:59.023Z,12.80
2022-08-26T14:19:28.166Z,6.20
2022-08-26T14:21:55.057Z,5.90
2022-08-26T14:24:22.595Z,7.70
2022-08-26T14:26:49.433Z,11.70
2022-08-26T14:29:16.904Z,7.70
2022-08-26T14:31:44.428Z,9.90
2022-08-26T14:34:13.969Z,7.60
2022-08-26T14:36:40.901Z,6.10
2022-08-26T14:39:10.683Z,9.50
2022-08-26T14:41:44.932Z,8.20
2022-08-26T14:44:14.683Z,4.90
2022-08-26T14:46:49.041Z,11.90
2022-08-26T14:49:17.739Z,7.20
2022-08-26T14:51:45.068Z,7.30
2022-08-26T14:54:13.743Z,7.00
2022-08-26T14:57:01.163Z,7.50
2022-08-26T14:59:32.129Z,6.70
2022-08-26T15:02:00.650Z,5.40
2022-08-26T15:04:28.745Z,11.20
2022-08-26T15:06:58.907Z,7.10
2022-08-26T15:09:26.700Z,4.70
2022-08-26T15:11:53.620Z,4.60
2022-08-26T15:14:21.689Z,9.10
2022-08-26T15:16:50.322Z,5.80
2022-08-26T15:19:18.507Z,6.50
2022-08-26T15:21:47.540Z,5.20
2022-08-26T15:24:16.660Z,6.80
2022-08-26T15:26:44.937Z,8.80
2022-08-26T15:29:11.904Z,7.20
2022-08-26T15:31:39.184Z,6.30
2022-08-26T15:34:13.150Z,7.10
2022-08-26T15:36:45.769Z,8.30
2022-08-26T15:39:13.850Z,6.00
2022-08-26T15:41:41.209Z,6.40
2022-08-26T15:44:08.391Z,8.20
2022-08-26T15:46:36.406Z,7.30
2022-08-26T15:49:05.142Z,3.60
2022-08-26T15:51:35.820Z,7.10
2022-08-26T15:54:13.660Z,6.40
2022-08-26T15:56:40.630Z,6.30
2022-08-26T15:59:08.222Z,4.50
2022-08-26T16:01:35.731Z,7.40
2022-08-26T16:04:03.930Z,8.10
2022-08-26T16:06:33.929Z,4.80
2022-08-26T16:09:01.443Z,9.40
2022-08-26T16:11:28.731Z,9.50
2022-08-26T16:13:56.059Z,5.30
2022-08-26T16:16:23.426Z,11.80
2022-08-26T16:18:50.501Z,8.40
2022-08-26T16:21:20.183Z,8.90
2022-08-26T16:23:47.469Z,7.10
2022-08-26T16:26:17.756Z,8.80
2022-08-26T16:28:45.134Z,5.60
2022-08-26T16:31:12.234Z,7.30
2022-08-26T16:33:39.345Z,5.90
2022-08-26T16:36:08.417Z,7.60
2022-08-26T16:38:36.299Z,7.60
2022-08-26T16:41:04.432Z,7.40
2022-08-26T16:43:31.506Z,7.40
2022-08-26T16:45:58.700Z,9.60
2022-08-26T16:48:26.953Z,8.90
2022-08-26T16:50:55.752Z,9.50
2022-08-26T16:53:23.496Z,9.50
2022-08-26T16:55:51.387Z,11.80
2022-08-26T16:58:20.402Z,6.20
2022-08-26T17:00:49.114Z,7.60
2022-08-26T17:03:16.040Z,9.10
2022-08-26T17:05:42.928Z,9.30
2022-08-26T17:08:10.218Z,9.90
2022-08-26T17:10:37.796Z,9.20
2022-08-26T17:13:04.989Z,12.20
2022-08-26T17:15:32.043Z,9.80
2022-08-26T17:17:59.215Z,9.30
2022-08-26T17:20:26.775Z,8.70
2022-08-26T17:22:56.061Z,10.70
2022-08-26T17:25:28.064Z,13.70
2022-08-26T17:30:27.127Z,10.00
2022-08-26T17:32:56.983Z,7.60
2022-08-26T17:35:24.733Z,10.80
2022-08-26T17:37:52.891Z,9.70
2022-08-26T17:40:24.150Z,8.00
2022-08-26T17:42:51.945Z,9.90
2022-08-26T17:47:48.271Z,6.70
2022-08-26T17:50:17.135Z,9.70
2022-08-26T17:52:45.154Z,8.00
2022-08-26T17:55:15.150Z,12.60
2022-08-26T17:57:44.746Z,11.50
2022-08-26T18:00:23.593Z,10.90
2022-08-26T18:02:50.502Z,8.80
2022-08-26T18:05:17.926Z,7.30
2022-08-26T18:07:45.151Z,9.00
2022-08-26T18:10:15.572Z,6.70
2022-08-26T18:12:43.093Z,7.40
2022-08-26T18:15:11.658Z,6.90
2022-08-26T18:17:39.417Z,9.00
2022-08-26T18:20:09.683Z,7.60
2022-08-26T18:22:36.579Z,8.10
2022-08-26T18:25:05.415Z,7.10
2022-08-26T18:27:32.854Z,8.50
2022-08-26T18:30:00.306Z,9.50
2022-08-26T18:32:27.495Z,9.90
2022-08-26T18:34:54.474Z,8.80
2022-08-26T18:37:21.362Z,7.80
2022-08-26T18:39:48.778Z,8.10
2022-08-26T18:42:15.612Z,9.80
2022-08-26T18:44:42.632Z,8.00
2022-08-26T18:47:09.481Z,6.20
2022-08-26T18:49:36.695Z,6.20
2022-08-26T18:52:05.533Z,8.50
2022-08-26T18:54:32.684Z,10.30
2022-08-26T18:56:59.642Z,7.40
2022-08-26T18:59:29.688Z,7.00
2022-08-26T19:01:57.921Z,7.80
2022-08-26T19:04:26.060Z,9.00
2022-08-26T19:06:53.420Z,9.00
2022-08-26T19:09:21.098Z,12.70
2022-08-26T19:11:49.692Z,10.10
2022-08-26T19:14:17.478Z,10.30
2022-08-26T19:16:48.765Z,11.80
2022-08-26T19:19:16.235Z,9.80
2022-08-26T19:21:43.764Z,7.80
2022-08-26T19:24:17.544Z,12.60
2022-08-26T19:29:13.816Z,14.50
2022-08-26T19:31:42.305Z,8.60
2022-08-26T19:34:11.321Z,8.40
2022-08-26T19:36:38.916Z,9.20
2022-08-26T19:39:09.995Z,9.60
2022-08-26T19:41:39.194Z,10.30
2022-08-26T19:44:11.534Z,17.20
2022-08-26T19:49:10.723Z,11.20
2022-08-26T19:51:37.795Z,11.60
2022-08-26T19:54:04.975Z,10.90
2022-08-26T19:56:31.880Z,11.60
2022-08-26T19:58:58.871Z,15.10
2022-08-26T20:01:25.818Z,9.80
2022-08-26T20:03:53.058Z,12.10
2022-08-26T20:06:20.910Z,10.10
2022-08-26T20:08:50.818Z,14.90
2022-08-26T20:11:20.765Z,12.70
2022-08-26T20:13:48.286Z,12.20
2022-08-26T20:16:16.253Z,9.30
2022-08-26T20:21:45.878Z,11.50
2022-08-26T20:24:16.231Z,12.30
2022-08-26T20:26:44.695Z,9.30
2022-08-26T20:29:15.610Z,13.00
2022-08-26T20:31:44.272Z,9.10
2022-08-26T20:34:13.574Z,13.80
2022-08-26T20:36:41.583Z,11.40
2022-08-26T20:39:10.589Z,11.30
2022-08-26T20:41:38.162Z,9.80
2022-08-26T20:44:05.927Z,9.40
2022-08-26T20:46:34.999Z,11.50
2022-08-26T20:49:02.496Z,11.50
2022-08-26T20:51:33.823Z,13.20
2022-08-26T20:54:01.653Z,14.00
2022-08-26T20:56:28.578Z,12.50
2022-08-26T20:58:59.423Z,14.10
2022-08-26T21:01:33.674Z,10.20
2022-08-26T21:04:03.655Z,10.20
2022-08-26T21:06:32.748Z,13.30
2022-08-26T21:09:01.566Z,9.30
2022-08-26T21:11:29.404Z,10.00
2022-08-26T21:14:06.805Z,10.40
2022-08-26T21:16:43.565Z,10.50
2022-08-26T21:19:13.920Z,10.90
2022-08-26T21:21:42.049Z,11.40
2022-08-26T21:24:09.574Z,13.40
2022-08-26T21:26:37.305Z,12.10
2022-08-26T21:29:06.806Z,11.80
2022-08-26T21:31:35.164Z,10.70
2022-08-26T21:34:02.121Z,14.20
2022-08-26T21:36:29.143Z,14.70
2022-08-26T21:38:58.069Z,11.50
2022-08-26T21:41:26.208Z,13.50
2022-08-26T21:43:56.018Z,10.00
2022-08-26T21:46:25.248Z,12.70
2022-08-26T21:48:57.193Z,9.80
2022-08-26T21:51:25.867Z,13.20
2022-08-26T21:53:53.100Z,11.80
2022-08-26T21:56:21.653Z,15.60
2022-08-26T21:58:48.709Z,14.60
2022-08-26T22:01:22.659Z,12.70
2022-08-26T22:03:52.345Z,16.80
2022-08-26T22:06:22.550Z,14.40
2022-08-26T22:08:50.169Z,14.80
2022-08-26T22:11:19.686Z,10.90
2022-08-26T22:13:48.907Z,15.80
2022-08-26T22:16:16.409Z,19.30
2022-08-26T22:18:46.037Z,15.60
2022-08-26T22:21:17.347Z,13.50
2022-08-26T22:23:46.092Z,17.50
2022-08-26T22:26:16.221Z,16.50
2022-08-26T22:28:58.531Z,15.60
2022-08-26T22:31:37.056Z,18.70
2022-08-26T22:34:09.405Z,13.20
2022-08-26T22:36:43.213Z,16.80
2022-08-26T22:39:13.756Z,18.00
2022-08-26T22:41:43.097Z,15.40
2022-08-26T22:44:11.833Z,17.90
2022-08-26T22:46:40.112Z,17.30
2022-08-26T22:49:09.721Z,15.20
2022-08-26T22:51:36.814Z,18.20
2022-08-26T22:54:04.920Z,18.20
2022-08-26T22:56:31.900Z,14.30
2022-08-26T22:58:58.744Z,22.60
2022-08-26T23:01:25.943Z,15.40
2022-08-26T23:03:53.694Z,17.00
2022-08-26T23:06:20.732Z,22.10
2022-08-26T23:08:47.877Z,18.90
2022-08-26T23:11:15.084Z,15.30
2022-08-26T23:13:42.582Z,15.80
2022-08-26T23:16:11.739Z,16.30
2022-08-26T23:18:40.896Z,16.80
2022-08-26T23:21:09.063Z,17.90
2022-08-26T23:23:36.614Z,15.70
2022-08-26T23:26:06.298Z,17.80
2022-08-26T23:28:34.619Z,21.10
2022-08-26T23:31:01.886Z,19.70
2022-08-26T23:33:49.018Z,22.50
2022-08-26T23:36:18.151Z,22.50
2022-08-26T23:38:52.351Z,26.20
2022-08-26T23:41:22.516Z,18.90
2022-08-26T23:43:49.969Z,16.50
2022-08-26T23:46:17.759Z,15.70
2022-08-26T23:48:45.055Z,21.10
2022-08-26T23:51:27.816Z,19.00
2022-08-26T23:53:54.999Z,17.60
2022-08-26T23:56:21.870Z,20.70
2022-08-26T23:58:48.771Z,19.40
